Time;durP1;ratioP1;P1;durP2;ratioP2;P2;SDS_P1;SDS_P2;PMS_P1;PMS_P2;Temp;Humidity;BMP_temperature;BMP_pressure;BME280_temperature;BME280_humidity;BME280_pressure;Samples;Min_cycle;Max_cycle;Signal;HPM_P1;HPM_P2
2023/04/13 00:02:22;;;;;;;6.22;3.47;;;;;;;4.59;67.01;93870.06;4984060;28;20288;-74
2023/04/13 00:04:50;;;;;;;2.42;1.77;;;;;;;4.73;66.66;93876.13;4983106;28;20233;-74
2023/04/13 00:07:18;;;;;;;7.20;2.28;;;;;;;4.42;66.83;93848.50;4985979;28;20293;-75
2023/04/13 00:09:46;;;;;;;4.93;2.17;;;;;;;4.47;67.26;93884.03;4983093;28;20210;-74
2023/04/13 00:12:15;;;;;;;13.73;3.05;;;;;;;4.43;67.54;93876.91;4985423;28;20214;-74
2023/04/13 00:14:42;;;;;;;9.02;5.07;;;;;;;4.41;67.60;93889.81;4971609;28;20222;-74
2023/04/13 00:17:09;;;;;;;9.82;4.90;;;;;;;4.44;67.88;93897.25;4984455;28;20214;-74
2023/04/13 00:19:36;;;;;;;8.73;5.07;;;;;;;4.33;68.00;93898.63;4983739;28;20225;-74
2023/04/13 00:22:04;;;;;;;12.35;5.43;;;;;;;4.16;68.71;93910.81;4976683;28;20244;-74
2023/04/13 00:24:32;;;;;;;10.98;5.10;;;;;;;4.06;68.37;93883.47;4970906;28;20233;-73
2023/04/13 00:27:00;;;;;;;10.07;5.45;;;;;;;4.12;68.47;93893.75;4990335;28;20287;-73
2023/04/13 00:29:26;;;;;;;10.10;5.07;;;;;;;4.04;68.37;93886.44;4986674;28;20194;-73
2023/04/13 00:31:53;;;;;;;9.63;5.25;;;;;;;4.07;68.92;93899.25;4989655;28;20210;-74
2023/04/13 00:34:20;;;;;;;8.05;4.88;;;;;;;4.03;68.74;93900.13;4985480;28;20537;-74
2023/04/13 00:36:48;;;;;;;4.90;2.55;;;;;;;3.89;70.08;93878.75;4990352;28;20210;-74
2023/04/13 00:39:14;;;;;;;12.68;4.70;;;;;;;3.90;69.44;93885.72;4990193;28;20209;-74
2023/04/13 00:41:42;;;;;;;5.90;2.90;;;;;;;3.80;69.24;93872.56;4989697;28;20233;-73
2023/04/13 00:44:10;;;;;;;4.18;2.83;;;;;;;3.80;69.57;93902.03;4974935;28;20206;-74
2023/04/13 00:46:37;;;;;;;8.38;2.25;;;;;;;3.63;69.46;93869.72;4989627;28;20669;-72
2023/04/13 00:49:04;;;;;;;10.27;4.80;;;;;;;3.94;68.39;93897.41;4976202;28;20206;-74
2023/04/13 00:51:31;;;;;;;7.90;4.35;;;;;;;3.79;67.78;93895.09;4990318;28;20240;-74
2023/04/13 00:53:59;;;;;;;7.72;3.47;;;;;;;3.88;67.88;93894.03;4974529;28;20195;-74
2023/04/13 00:56:27;;;;;;;11.60;4.43;;;;;;;3.81;67.21;93900.94;4979592;28;20276;-75
2023/04/13 00:58:56;;;;;;;4.65;2.70;;;;;;;3.73;67.17;93893.59;4989861;28;20254;-74
2023/04/13 01:01:24;;;;;;;4.50;2.83;;;;;;;3.79;66.31;93911.16;4989806;28;20284;-74
2023/04/13 01:03:53;;;;;;;2.05;1.50;;;;;;;3.51;66.69;93872.94;4975546;28;20197;-75
2023/04/13 01:06:28;;;;;;;6.18;2.17;;;;;;;3.67;66.61;93898.28;4989122;28;20786;-74
2023/04/13 01:09:01;;;;;;;2.00;1.50;;;;;;;3.63;68.03;93913.38;4989417;28;20552;-74
2023/04/13 01:11:38;;;;;;;2.83;1.92;;;;;;;3.49;68.59;93908.03;4989976;28;20217;-74
2023/04/13 01:14:13;;;;;;;2.10;1.40;;;;;;;3.39;68.47;93907.47;4973723;28;20297;-74
2023/04/13 01:16:44;;;;;;;5.22;1.88;;;;;;;3.23;70.48;93877.56;4973389;28;20213;-74
2023/04/13 01:19:28;;;;;;;3.13;2.33;;;;;;;3.22;70.98;93892.03;4959693;28;20210;-73
2023/04/13 01:21:56;;;;;;;3.42;2.15;;;;;;;3.32;71.34;93913.22;4957158;28;20245;-74
2023/04/13 01:24:35;;;;;;;4.50;2.63;;;;;;;3.42;75.55;93918.34;4969459;28;20223;-74
2023/04/13 01:27:11;;;;;;;5.32;1.92;;;;;;;3.30;74.32;93883.28;4965402;28;20434;-74
2023/04/13 01:29:41;;;;;;;4.80;1.80;;;;;;;3.10;70.32;93894.44;4974100;28;20324;-74
2023/04/13 01:32:10;;;;;;;11.85;5.05;;;;;;;3.21;72.36;93912.66;4978969;28;20743;-74
2023/04/13 01:34:38;;;;;;;8.77;5.03;;;;;;;3.41;76.30;93910.66;4972244;28;20206;-74
2023/04/13 01:37:05;;;;;;;33.78;13.40;;;;;;;3.48;72.52;93905.66;4989018;28;20822;-74
2023/04/13 01:39:32;;;;;;;42.47;17.92;;;;;;;3.36;73.44;93914.22;4989063;28;20206;-74
2023/04/13 01:42:00;;;;;;;18.63;8.27;;;;;;;3.26;72.83;93887.69;4978329;28;20277;-73
2023/04/13 01:44:30;;;;;;;45.85;19.88;;;;;;;3.40;73.95;93915.22;4982426;28;20238;-74
2023/04/13 01:47:12;;;;;;;82.60;31.00;;;;;;;3.07;73.59;93887.00;4959410;28;21023;-73
2023/04/13 01:49:40;;;;;;;44.17;18.05;;;;;;;3.24;72.41;93905.91;4988466;28;20623;-75
2023/04/13 01:52:08;;;;;;;23.08;10.50;;;;;;;2.99;73.48;93877.00;4988256;28;20272;-75
2023/04/13 01:54:36;;;;;;;7.60;4.03;;;;;;;3.19;71.34;93887.28;4968860;28;20302;-75
2023/04/13 01:57:04;;;;;;;7.82;3.30;;;;;;;3.26;70.55;93895.72;4983309;28;20452;-75
2023/04/13 01:59:31;;;;;;;16.15;6.40;;;;;;;3.26;69.85;93887.69;4988810;28;20206;-74
2023/04/13 02:01:59;;;;;;;30.10;12.60;;;;;;;3.32;73.42;93889.13;4988886;28;20241;-74
2023/04/13 02:04:27;;;;;;;14.13;7.32;;;;;;;3.20;73.96;93870.94;4976902;28;20201;-74
2023/04/13 02:06:53;;;;;;;20.45;8.02;;;;;;;3.27;74.19;93870.53;4988508;28;20234;-74
2023/04/13 02:09:20;;;;;;;3.13;1.85;;;;;;;3.43;69.45;93893.19;4988844;28;20205;-75
2023/04/13 02:11:48;;;;;;;4.30;1.90;;;;;;;3.19;71.00;93877.38;4973834;28;20214;-74
2023/04/13 02:14:15;;;;;;;12.68;4.47;;;;;;;3.40;73.37;93909.88;4975086;28;20208;-74
2023/04/13 02:16:42;;;;;;;9.23;4.22;;;;;;;3.16;74.29;93877.16;4988345;28;20198;-74
2023/04/13 02:19:10;;;;;;;7.97;3.70;;;;;;;3.29;72.90;93908.47;4988830;28;20205;-74
2023/04/13 02:21:37;;;;;;;3.97;1.70;;;;;;;3.26;73.17;93909.09;4988414;28;20283;-73
2023/04/13 02:24:05;;;;;;;5.55;3.58;;;;;;;3.21;75.02;93895.81;4972494;28;20791;-74
2023/04/13 02:26:31;;;;;;;8.45;3.40;;;;;;;3.26;74.49;93909.09;4985179;28;20233;-75
2023/04/13 02:28:59;;;;;;;6.85;3.33;;;;;;;3.25;76.38;93891.44;4978582;28;20605;-74
2023/04/13 02:31:26;;;;;;;9.05;5.03;;;;;;;2.99;73.82;93895.72;4972248;28;20246;-73
2023/04/13 02:33:53;;;;;;;11.52;3.30;;;;;;;3.03;73.76;93894.03;4983288;28;20208;-74
2023/04/13 02:36:23;;;;;;;12.93;3.00;;;;;;;3.38;70.91;93921.94;4984808;28;20206;-74
2023/04/13 02:38:51;;;;;;;8.50;3.35;;;;;;;3.13;73.26;93929.41;4958248;28;20289;-74
2023/04/13 02:41:21;;;;;;;12.20;4.20;;;;;;;2.92;74.29;93898.00;4979430;28;20221;-74
2023/04/13 02:43:49;;;;;;;5.20;3.13;;;;;;;2.92;73.02;93909.50;4979934;28;20198;-73
2023/04/13 02:46:16;;;;;;;4.13;2.47;;;;;;;2.88;73.25;93929.09;4964607;28;20298;-75
2023/04/13 02:48:43;;;;;;;4.40;2.45;;;;;;;2.79;74.96;93927.13;4961217;28;20203;-74
2023/04/13 02:51:11;;;;;;;6.30;2.70;;;;;;;2.87;74.87;93932.88;4981725;28;20214;-73
2023/04/13 02:53:39;;;;;;;7.60;3.03;;;;;;;3.03;76.74;93932.25;4968525;28;20393;-73
2023/04/13 02:56:08;;;;;;;8.40;3.75;;;;;;;2.88;76.04;93927.22;4974508;28;20219;-74
2023/04/13 02:58:35;;;;;;;4.78;2.40;;;;;;;3.00;74.19;93946.25;4987906;28;20718;-73
2023/04/13 03:01:02;;;;;;;4.55;2.78;;;;;;;2.82;73.23;93933.75;4987073;28;20206;-74
2023/04/13 03:03:30;;;;;;;3.65;1.88;;;;;;;2.57;73.07;93907.50;4963970;28;20226;-74
2023/04/13 03:05:57;;;;;;;5.13;2.00;;;;;;;2.67;73.68;93940.16;4961520;28;20285;-74
2023/04/13 03:08:24;;;;;;;3.15;2.33;;;;;;;2.54;75.36;93946.28;4975822;28;20688;-74
2023/04/13 03:10:53;;;;;;;2.17;1.35;;;;;;;2.57;75.83;93948.38;4987749;28;20213;-74
2023/04/13 03:13:20;;;;;;;5.88;2.78;;;;;;;2.67;75.80;93936.72;4978009;28;20600;-74
2023/04/13 03:15:47;;;;;;;4.38;2.13;;;;;;;2.50;76.73;93915.88;4987476;28;20616;-73
2023/04/13 03:18:15;;;;;;;3.75;1.92;;;;;;;2.77;76.92;93928.50;4987352;28;20202;-73
2023/04/13 03:20:42;;;;;;;7.32;2.70;;;;;;;2.76;76.13;93938.41;4987764;28;20197;-74
2023/04/13 03:23:09;;;;;;;5.63;2.58;;;;;;;2.92;76.07;93940.78;4978122;28;20366;-74
2023/04/13 03:25:36;;;;;;;9.50;3.20;;;;;;;2.63;75.40;93928.47;4977251;28;20230;-74
2023/04/13 03:28:05;;;;;;;2.25;1.58;;;;;;;2.90;75.97;93948.31;4987207;28;20348;-74
2023/04/13 03:30:32;;;;;;;3.35;1.80;;;;;;;2.76;75.16;93917.00;4975159;28;20305;-74
2023/04/13 03:32:58;;;;;;;8.85;2.63;;;;;;;2.82;75.49;93942.56;4979246;28;20225;-74
2023/04/13 03:35:26;;;;;;;8.27;1.80;;;;;;;2.75;73.95;93947.50;4978048;28;20237;-74
2023/04/13 03:37:52;;;;;;;5.00;1.70;;;;;;;2.54;73.60;93930.25;4983870;28;20569;-74
2023/04/13 03:40:19;;;;;;;5.95;2.90;;;;;;;2.76;72.74;93927.69;4987162;28;20202;-75
2023/04/13 03:42:46;;;;;;;5.07;3.10;;;;;;;2.78;73.99;93952.25;4970429;28;20226;-73
2023/04/13 03:45:14;;;;;;;7.30;3.58;;;;;;;2.58;75.53;93920.56;4977997;28;20209;-74
2023/04/13 03:47:41;;;;;;;6.90;2.90;;;;;;;2.85;74.99;93958.03;4986886;28;20205;-74
2023/04/13 03:50:08;;;;;;;5.30;2.85;;;;;;;2.80;74.69;93939.41;4976795;28;20681;-73
2023/04/13 03:52:35;;;;;;;8.35;4.47;;;;;;;2.81;75.76;93961.59;4980660;28;20240;-73
2023/04/13 03:55:02;;;;;;;6.28;2.53;;;;;;;3.00;74.36;93953.50;4978431;28;20680;-73
2023/04/13 03:57:30;;;;;;;5.57;2.83;;;;;;;3.10;75.15;93955.97;4987274;28;20735;-73
2023/04/13 03:59:57;;;;;;;4.65;3.00;;;;;;;3.40;74.97;93957.25;4986556;28;20620;-74
2023/04/13 04:02:25;;;;;;;5.15;2.85;;;;;;;3.51;74.00;93953.25;4984664;28;20307;-73
2023/04/13 04:04:52;;;;;;;3.28;2.33;;;;;;;4.08;72.37;93930.31;4979267;28;20210;-73
2023/04/13 04:07:22;;;;;;;3.08;2.28;;;;;;;5.03;68.58;93922.81;4990249;28;20787;-73
2023/04/13 04:09:49;;;;;;;10.38;4.07;;;;;;;6.21;65.39;93945.97;4978248;28;20206;-74
2023/04/13 04:12:16;;;;;;;9.18;3.40;;;;;;;6.95;62.82;93918.78;4988921;28;20260;-74
2023/04/13 04:14:44;;;;;;;7.30;3.55;;;;;;;8.28;59.49;93937.06;4984087;28;20212;-73
2023/04/13 04:17:11;;;;;;;8.57;3.72;;;;;;;9.01;55.94;93940.06;4964610;28;20202;-74
2023/04/13 04:19:39;;;;;;;7.28;3.25;;;;;;;10.07;53.05;93928.38;4990818;28;20478;-74
2023/04/13 04:22:06;;;;;;;15.45;5.93;;;;;;;10.73;51.18;93939.59;4990297;28;20580;-73
2023/04/13 04:24:34;;;;;;;10.32;3.97;;;;;;;11.01;49.06;93936.88;4971509;28;20227;-73
2023/04/13 04:27:01;;;;;;;12.23;3.50;;;;;;;11.88;47.32;93925.91;4990964;28;20254;-73
2023/04/13 04:29:34;;;;;;;11.27;5.68;;;;;;;12.59;46.03;93930.16;4990250;28;20229;-72
2023/04/13 04:32:02;;;;;;;10.10;5.53;;;;;;;13.30;44.20;93928.84;4979148;28;20214;-73
2023/04/13 04:34:29;;;;;;;10.98;5.30;;;;;;;13.43;43.93;93918.56;4972456;28;20759;-73
2023/04/13 04:36:59;;;;;;;6.60;3.55;;;;;;;14.04;42.21;93923.84;4990483;28;20210;-73
2023/04/13 04:39:31;;;;;;;10.02;4.28;;;;;;;14.29;41.81;93924.19;4988205;28;20640;-73
2023/04/13 04:42:02;;;;;;;10.45;3.33;;;;;;;14.86;39.59;93925.75;4979870;28;20302;-73
2023/04/13 04:44:30;;;;;;;7.07;3.25;;;;;;;14.93;38.99;93917.63;4967341;28;20295;-73
2023/04/13 04:46:57;;;;;;;9.73;3.20;;;;;;;15.42;38.51;93924.81;4972367;28;20253;-73
2023/04/13 04:49:26;;;;;;;9.18;4.78;;;;;;;15.56;38.04;93908.59;4986497;28;20206;-73
2023/04/13 04:51:54;;;;;;;11.85;4.05;;;;;;;16.09;37.00;93910.97;4981619;28;20202;-73
2023/04/13 04:54:23;;;;;;;8.10;3.33;;;;;;;16.26;35.79;93923.94;4976108;28;20280;-72
2023/04/13 04:56:51;;;;;;;8.77;4.40;;;;;;;16.17;36.00;93931.69;4978515;28;20210;-73
2023/04/13 04:59:19;;;;;;;6.53;3.97;;;;;;;16.54;35.33;93922.53;4988537;28;20210;-74
2023/04/13 05:01:48;;;;;;;6.88;3.35;;;;;;;17.36;33.90;93929.16;4989535;28;20616;-72
2023/04/13 05:04:15;;;;;;;4.75;3.03;;;;;;;18.08;32.97;93923.41;4972406;28;20244;-72
2023/04/13 05:06:43;;;;;;;10.27;3.95;;;;;;;18.64;31.87;93907.28;4982928;28;20331;-74
2023/04/13 05:09:10;;;;;;;6.40;3.20;;;;;;;18.65;32.05;93903.38;4964182;28;20635;-73
2023/04/13 05:11:39;;;;;;;7.93;3.60;;;;;;;18.38;31.55;93895.56;4989860;28;20232;-71
2023/04/13 05:14:06;;;;;;;12.23;3.90;;;;;;;18.85;30.90;93923.72;4980069;28;20297;-72
2023/04/13 05:16:33;;;;;;;5.65;3.50;;;;;;;18.45;31.19;93922.19;4989554;28;20212;-73
2023/04/13 05:18:59;;;;;;;8.93;3.92;;;;;;;17.56;32.31;93916.69;4989562;28;20264;-73
2023/04/13 05:21:27;;;;;;;7.03;3.55;;;;;;;17.30;32.15;93927.97;4988632;28;20279;-73
2023/04/13 05:23:54;;;;;;;9.43;3.78;;;;;;;17.24;32.25;93924.03;4969220;28;20312;-72
2023/04/13 05:26:20;;;;;;;6.63;3.70;;;;;;;17.34;36.99;93915.09;4958903;28;20649;-73
2023/04/13 05:28:49;;;;;;;5.07;3.60;;;;;;;17.58;32.67;93919.84;4989630;28;20209;-73
2023/04/13 05:31:15;;;;;;;7.88;3.60;;;;;;;17.70;33.58;93926.91;4986363;28;20205;-72
2023/04/13 05:33:42;;;;;;;8.05;3.35;;;;;;;17.23;32.41;93930.69;4976368;28;20235;-72
2023/04/13 05:36:09;;;;;;;7.55;3.08;;;;;;;16.71;32.44;93935.56;4985807;28;20210;-73
2023/04/13 05:38:36;;;;;;;7.95;3.20;;;;;;;16.54;33.55;93934.25;4988663;28;20740;-72
2023/04/13 05:41:03;;;;;;;4.30;2.88;;;;;;;16.13;33.62;93935.56;4988872;28;20201;-73
2023/04/13 05:43:30;;;;;;;8.63;3.65;;;;;;;15.75;34.00;93925.88;4977606;28;20229;-73
2023/04/13 05:45:58;;;;;;;5.18;3.33;;;;;;;16.08;34.18;93933.19;4985400;28;20267;-73
2023/04/13 05:48:25;;;;;;;7.55;3.10;;;;;;;17.29;32.28;93923.69;4979490;28;20214;-72
2023/04/13 05:50:56;;;;;;;7.05;3.45;;;;;;;17.82;31.52;93912.06;4985755;28;20208;-73
2023/04/13 05:53:24;;;;;;;8.80;3.70;;;;;;;16.78;32.73;93930.13;4977961;28;20229;-73
2023/04/13 05:55:51;;;;;;;4.88;3.00;;;;;;;18.07;31.81;93929.28;4986788;28;20201;-72
2023/04/13 05:58:19;;;;;;;5.68;3.35;;;;;;;18.53;30.17;93921.00;4988849;28;20205;-72
2023/04/13 06:00:45;;;;;;;8.82;3.67;;;;;;;19.54;29.32;93898.31;4977077;28;20213;-73
2023/04/13 06:03:15;;;;;;;8.15;3.80;;;;;;;17.59;31.00;93904.97;4968431;28;20732;-73
2023/04/13 06:05:44;;;;;;;6.45;3.20;;;;;;;16.01;32.93;93922.97;4987578;28;20890;-73
2023/04/13 06:08:12;;;;;;;7.75;3.28;;;;;;;15.96;32.74;93915.16;4981564;28;20234;-72
2023/04/13 06:10:39;;;;;;;5.40;2.90;;;;;;;18.45;30.20;93901.03;4987956;28;20228;-72
2023/04/13 06:13:07;;;;;;;4.88;3.08;;;;;;;19.66;29.74;93905.28;4970429;28;20209;-73
2023/04/13 06:15:35;;;;;;;7.57;2.78;;;;;;;19.16;29.04;93911.00;4987747;28;20201;-73
2023/04/13 06:18:01;;;;;;;5.25;3.13;;;;;;;16.18;32.02;93927.00;4988166;28;20233;-73
2023/04/13 06:20:30;;;;;;;8.00;3.97;;;;;;;16.31;33.36;93937.25;4949710;28;20203;-72
2023/04/13 06:22:57;;;;;;;8.18;3.63;;;;;;;16.84;32.05;93942.28;4967652;28;20233;-74
2023/04/13 06:25:24;;;;;;;8.25;3.72;;;;;;;15.55;33.61;93931.59;4975952;28;20673;-72
2023/04/13 06:27:51;;;;;;;7.93;3.45;;;;;;;15.93;33.65;93944.00;4963072;28;20206;-73
2023/04/13 06:30:18;;;;;;;7.20;3.60;;;;;;;17.89;31.23;93943.00;4969793;28;20699;-73
2023/04/13 06:32:45;;;;;;;9.38;4.35;;;;;;;17.15;31.47;93934.59;4969627;28;20531;-73
2023/04/13 06:35:12;;;;;;;7.32;4.03;;;;;;;18.67;29.81;93929.22;4968602;28;20285;-73
2023/04/13 06:37:40;;;;;;;5.90;3.65;;;;;;;19.79;28.85;93914.63;4970819;28;20217;-73
2023/04/13 06:40:11;;;;;;;9.13;3.78;;;;;;;18.55;29.14;93937.06;4972091;28;20281;-71
2023/04/13 06:42:38;;;;;;;6.47;3.13;;;;;;;18.22;30.17;93930.84;4975074;28;20814;-73
2023/04/13 06:45:06;;;;;;;7.68;3.60;;;;;;;18.60;29.31;93939.44;4959959;28;20203;-73
2023/04/13 06:47:33;;;;;;;5.68;3.78;;;;;;;17.74;30.01;93912.06;4978274;28;20202;-74
2023/04/13 06:50:04;;;;;;;7.38;3.92;;;;;;;17.35;30.89;93898.28;4973690;28;20929;-74
2023/04/13 06:52:30;;;;;;;5.28;3.30;;;;;;;18.86;29.58;93908.78;4976821;28;20206;-73
2023/04/13 06:54:59;;;;;;;12.35;4.30;;;;;;;18.82;29.20;93902.53;4958377;28;20213;-74
2023/04/13 06:57:26;;;;;;;6.50;4.20;;;;;;;18.51;30.05;93898.66;4966684;28;20201;-73
2023/04/13 06:59:53;;;;;;;7.75;4.07;;;;;;;18.84;29.53;93883.72;4963098;28;20587;-74
2023/04/13 07:02:20;;;;;;;11.30;4.07;;;;;;;18.02;30.46;93926.94;4967362;28;20201;-73
2023/04/13 07:04:47;;;;;;;9.73;4.00;;;;;;;18.47;29.95;93930.81;4963043;28;20227;-72
2023/04/13 07:07:14;;;;;;;8.88;4.40;;;;;;;16.12;33.08;93934.78;4964371;28;20321;-72
2023/04/13 07:09:41;;;;;;;7.32;3.80;;;;;;;15.73;33.76;93941.88;4967777;28;20206;-73
2023/04/13 07:12:10;;;;;;;8.25;4.28;;;;;;;17.44;31.95;93929.97;4967112;28;20698;-73
2023/04/13 07:14:38;;;;;;;15.10;4.18;;;;;;;16.53;32.50;93931.94;4963991;28;20216;-73
2023/04/13 07:17:05;;;;;;;6.93;4.10;;;;;;;17.18;32.07;93917.41;4969145;28;20206;-73
2023/04/13 07:19:33;;;;;;;9.05;4.03;;;;;;;16.77;31.71;93887.53;4971563;28;20533;-73
2023/04/13 07:22:01;;;;;;;6.07;3.60;;;;;;;14.68;34.82;93935.66;4965414;28;21113;-72
2023/04/13 07:24:29;;;;;;;7.47;4.00;;;;;;;15.06;34.89;93911.94;4967018;28;20632;-72
2023/04/13 07:26:56;;;;;;;7.78;3.60;;;;;;;14.69;35.11;93923.59;4970551;28;20202;-72
2023/04/13 07:29:25;;;;;;;7.35;3.15;;;;;;;14.12;35.92;93917.34;4968316;28;20198;-73
2023/04/13 07:31:52;;;;;;;12.27;4.03;;;;;;;15.23;35.22;93920.31;4966368;28;20280;-73
2023/04/13 07:34:20;;;;;;;7.93;3.30;;;;;;;15.21;34.02;93908.19;4962507;28;20206;-74
2023/04/13 07:36:47;;;;;;;8.00;3.03;;;;;;;14.82;34.87;93886.75;4957403;28;20210;-74
2023/04/13 07:39:14;;;;;;;14.73;3.20;;;;;;;14.69;35.25;93899.06;4969863;28;20225;-73
2023/04/13 07:41:40;;;;;;;10.40;3.10;;;;;;;15.69;34.37;93905.56;4971348;28;20198;-73
2023/04/13 07:44:07;;;;;;;10.63;3.33;;;;;;;15.88;33.27;93913.50;4969616;28;20237;-75
2023/04/13 07:46:36;;;;;;;8.30;3.10;;;;;;;15.34;34.21;93912.22;4973710;28;20206;-73
2023/04/13 07:49:02;;;;;;;7.55;3.38;;;;;;;15.84;33.79;93890.88;4969545;28;20209;-74
2023/04/13 07:51:31;;;;;;;9.23;3.25;;;;;;;15.83;34.41;93906.47;4980167;28;20301;-74
2023/04/13 07:53:58;;;;;;;12.05;3.53;;;;;;;14.45;35.75;93921.34;4976382;28;20297;-74
2023/04/13 07:56:25;;;;;;;8.70;3.58;;;;;;;14.63;36.61;93916.88;4980428;28;20255;-74
2023/04/13 07:58:52;;;;;;;9.68;3.20;;;;;;;15.31;35.31;93912.22;4987986;28;20217;-74
2023/04/13 08:01:20;;;;;;;8.93;3.53;;;;;;;14.80;35.56;93880.88;4980852;28;20198;-74
2023/04/13 08:03:48;;;;;;;11.07;3.78;;;;;;;16.18;34.22;93903.22;4976741;28;20226;-73
2023/04/13 08:06:15;;;;;;;7.22;3.13;;;;;;;15.75;34.26;93898.59;4980807;28;20241;-74
2023/04/13 08:08:43;;;;;;;10.65;3.67;;;;;;;15.91;33.69;93896.38;4991049;28;20202;-75
2023/04/13 08:11:10;;;;;;;9.80;3.50;;;;;;;14.96;35.21;93907.94;4990751;28;20486;-74
2023/04/13 08:13:37;;;;;;;6.60;3.50;;;;;;;14.42;35.72;93913.88;4977005;28;20206;-73
2023/04/13 08:16:05;;;;;;;7.75;4.07;;;;;;;15.00;35.87;93914.22;4980081;28;20213;-74
2023/04/13 08:18:32;;;;;;;8.52;3.05;;;;;;;15.06;35.35;93907.25;4972584;28;20221;-74
2023/04/13 08:21:00;;;;;;;4.18;2.70;;;;;;;14.37;36.23;93904.06;4970242;28;20238;-74
2023/04/13 08:23:27;;;;;;;9.98;3.45;;;;;;;14.30;36.19;93889.56;4968852;28;20768;-74
2023/04/13 08:25:54;;;;;;;9.82;3.67;;;;;;;15.60;34.88;93887.53;4969716;28;20680;-73
2023/04/13 08:28:20;;;;;;;10.45;3.53;;;;;;;15.27;35.21;93876.69;4973634;28;20201;-74
2023/04/13 08:30:47;;;;;;;4.93;2.60;;;;;;;15.15;35.69;93883.22;4972568;28;20198;-74
2023/04/13 08:33:14;;;;;;;8.73;3.15;;;;;;;15.81;34.33;93881.50;4978474;28;20213;-74
2023/04/13 08:35:41;;;;;;;10.93;3.10;;;;;;;15.99;35.25;93865.19;4970441;28;20195;-74
2023/04/13 08:38:09;;;;;;;8.10;2.70;;;;;;;16.50;34.03;93867.06;4971612;28;20206;-73
2023/04/13 08:40:38;;;;;;;6.28;2.85;;;;;;;16.81;34.74;93874.66;4972500;28;20202;-73
2023/04/13 08:43:05;;;;;;;7.65;3.17;;;;;;;16.49;33.26;93881.91;4971489;28;20199;-75
2023/04/13 08:45:32;;;;;;;7.45;2.42;;;;;;;15.54;34.42;93877.34;4969396;28;20691;-75
2023/04/13 08:48:01;;;;;;;10.95;2.75;;;;;;;15.40;34.97;93826.13;4969927;28;20704;-75
2023/04/13 08:50:28;;;;;;;5.38;2.85;;;;;;;16.15;34.31;93862.19;4971458;28;20199;-73
2023/04/13 08:52:55;;;;;;;8.88;2.70;;;;;;;16.38;33.75;93848.28;4967717;28;20210;-74
2023/04/13 08:55:25;;;;;;;9.25;3.00;;;;;;;16.06;33.60;93870.72;4975908;28;20277;-74
2023/04/13 08:57:56;;;;;;;9.23;3.00;;;;;;;16.10;33.50;93866.09;4964959;28;20191;-74
2023/04/13 09:00:24;;;;;;;5.75;2.58;;;;;;;16.21;33.73;93861.47;4970488;28;20676;-74
2023/04/13 09:02:59;;;;;;;9.55;2.90;;;;;;;15.68;34.44;93860.31;4972246;28;20202;-73
2023/04/13 09:05:28;;;;;;;4.93;2.80;;;;;;;15.75;34.96;93855.69;4969686;28;20238;-74
2023/04/13 09:07:57;;;;;;;5.97;2.75;;;;;;;15.87;34.15;93857.31;4969431;28;20300;-74
2023/04/13 09:10:26;;;;;;;4.47;2.75;;;;;;;16.38;33.80;93848.28;4976523;28;20201;-73
2023/04/13 09:12:53;;;;;;;7.70;2.60;;;;;;;16.20;33.66;93843.50;4969357;28;20191;-74
2023/04/13 09:15:20;;;;;;;7.65;2.95;;;;;;;16.61;33.25;93856.97;4969556;28;20666;-73
2023/04/13 09:17:47;;;;;;;3.90;2.55;;;;;;;16.56;33.36;93849.13;4970063;28;20202;-73
2023/04/13 09:20:21;;;;;;;8.13;2.95;;;;;;;16.54;33.46;93835.03;4969254;28;20206;-74
2023/04/13 09:22:49;;;;;;;8.60;2.67;;;;;;;17.12;33.14;93814.94;4969177;28;20218;-74
2023/04/13 09:25:23;;;;;;;6.65;2.63;;;;;;;17.30;32.98;93854.06;4971270;28;20838;-74
2023/04/13 09:27:52;;;;;;;6.38;2.70;;;;;;;16.82;33.52;93835.19;4969178;28;20209;-74
2023/04/13 09:30:21;;;;;;;7.55;3.35;;;;;;;16.39;34.26;93838.91;4970321;28;20226;-74
2023/04/13 09:32:48;;;;;;;8.52;3.35;;;;;;;17.10;34.58;93811.78;4969699;28;20272;-74
2023/04/13 09:35:14;;;;;;;7.35;3.72;;;;;;;17.45;33.11;93817.31;4969918;28;20202;-74
2023/04/13 09:37:42;;;;;;;5.97;3.10;;;;;;;16.46;34.38;93828.00;4968863;28;20331;-74
2023/04/13 09:40:10;;;;;;;7.65;3.17;;;;;;;16.09;34.70;93823.53;4968322;28;20281;-74
2023/04/13 09:42:37;;;;;;;5.95;3.17;;;;;;;16.12;34.66;93803.66;4968357;28;20198;-75
2023/04/13 09:45:07;;;;;;;6.35;2.88;;;;;;;16.62;35.01;93821.06;4968473;28;20230;-74
2023/04/13 09:47:39;;;;;;;6.45;3.05;;;;;;;17.08;33.67;93792.28;4971172;28;20197;-74
2023/04/13 09:50:17;;;;;;;6.75;2.97;;;;;;;17.43;34.10;93814.19;4966957;28;20779;-74
2023/04/13 09:52:44;;;;;;;5.75;2.83;;;;;;;18.17;32.64;93807.88;4970481;28;20214;-73
2023/04/13 09:55:16;;;;;;;7.80;3.15;;;;;;;17.88;32.81;93798.94;4970002;28;20214;-73
2023/04/13 09:57:43;;;;;;;9.30;3.35;;;;;;;18.49;32.23;93796.78;4970204;28;20740;-73
2023/04/13 10:00:19;;;;;;;6.70;3.53;;;;;;;18.08;32.89;93760.91;4968721;28;20203;-74
2023/04/13 10:02:48;;;;;;;6.65;3.03;;;;;;;18.58;33.44;93788.16;4965889;28;20193;-74
2023/04/13 10:05:16;;;;;;;10.18;3.28;;;;;;;17.16;33.59;93799.31;4970268;28;20676;-73
2023/04/13 10:07:44;;;;;;;6.85;2.97;;;;;;;17.00;34.29;93797.72;4970304;28;20232;-74
2023/04/13 10:10:11;;;;;;;4.63;2.88;;;;;;;17.68;33.34;93770.38;4969937;28;20242;-74
2023/04/13 10:12:41;;;;;;;5.85;3.00;;;;;;;18.24;32.93;93766.72;4968932;28;20206;-73
2023/04/13 10:15:22;;;;;;;7.60;3.28;;;;;;;18.39;32.63;93771.00;4969156;28;20269;-73
2023/04/13 10:18:01;;;;;;;11.20;3.85;;;;;;;18.86;32.68;93777.03;4966142;28;20210;-74
2023/04/13 10:20:29;;;;;;;5.05;2.95;;;;;;;18.78;32.59;93775.53;4972193;28;20222;-74
2023/04/13 10:22:58;;;;;;;6.03;3.28;;;;;;;18.07;33.41;93773.03;4965893;28;20264;-74
2023/04/13 10:25:25;;;;;;;6.38;2.90;;;;;;;17.68;33.10;93770.38;4969107;28;20245;-74
2023/04/13 10:27:57;;;;;;;6.40;3.63;;;;;;;18.00;34.06;93764.84;4981932;28;20201;-74
2023/04/13 10:30:27;;;;;;;5.05;3.22;;;;;;;18.54;32.74;93774.44;4965098;28;20206;-73
2023/04/13 10:33:04;;;;;;;11.55;3.30;;;;;;;18.39;33.16;93765.50;4975508;28;20202;-74
2023/04/13 10:35:35;;;;;;;8.15;4.07;;;;;;;18.04;34.01;93754.66;4959009;28;20298;-74
2023/04/13 10:38:03;;;;;;;7.32;3.75;;;;;;;17.89;35.03;93747.66;4972850;28;20197;-73
2023/04/13 10:40:30;;;;;;;9.00;3.90;;;;;;;18.33;33.70;93747.88;4977663;28;20206;-74
2023/04/13 10:42:56;;;;;;;5.10;3.30;;;;;;;18.54;33.38;93757.22;4978787;28;20645;-73
2023/04/13 10:45:33;;;;;;;9.50;3.35;;;;;;;18.47;33.36;93745.09;4979160;28;20245;-72
2023/04/13 10:48:00;;;;;;;9.70;3.22;;;;;;;18.46;32.71;93743.53;4953759;28;20213;-73
2023/04/13 10:50:27;;;;;;;9.32;3.00;;;;;;;18.44;32.99;93723.97;4968168;28;20289;-73
2023/04/13 10:52:59;;;;;;;7.40;3.20;;;;;;;18.73;33.64;93743.00;4980378;28;20387;-74
2023/04/13 10:55:27;;;;;;;4.68;2.92;;;;;;;19.57;32.14;93740.88;4983464;28;20212;-73
2023/04/13 10:57:55;;;;;;;8.20;3.47;;;;;;;19.71;32.19;93735.25;4978381;28;20300;-73
2023/04/13 11:00:22;;;;;;;12.10;3.08;;;;;;;19.36;32.35;93739.06;4989880;28;20209;-73
2023/04/13 11:02:52;;;;;;;6.13;3.45;;;;;;;18.88;32.55;93736.25;4983061;28;20607;-74
2023/04/13 11:05:21;;;;;;;5.90;3.63;;;;;;;18.78;33.05;93737.13;4986482;28;20233;-74
2023/04/13 11:07:49;;;;;;;6.35;3.42;;;;;;;18.38;33.42;93714.56;4990653;28;20305;-74
2023/04/13 11:10:16;;;;;;;7.07;3.50;;;;;;;18.51;36.47;93734.09;4990523;28;20685;-73
2023/04/13 11:12:50;;;;;;;7.55;3.30;;;;;;;19.01;33.54;93723.63;4985198;28;20245;-73
2023/04/13 11:15:20;;;;;;;10.60;3.15;;;;;;;18.72;33.05;93727.75;4967464;28;20315;-74
2023/04/13 11:17:53;;;;;;;7.10;3.40;;;;;;;18.87;33.15;93707.25;4974244;28;20202;-75
2023/04/13 11:20:29;;;;;;;7.05;2.90;;;;;;;18.78;33.28;93687.72;4977667;28;20828;-73
2023/04/13 11:22:56;;;;;;;7.10;3.67;;;;;;;19.05;32.71;93713.41;4982597;28;20222;-72
2023/04/13 11:25:23;;;;;;;8.50;3.65;;;;;;;18.81;33.20;93709.66;4977894;28;20325;-74
2023/04/13 11:27:55;;;;;;;8.52;3.20;;;;;;;19.02;33.68;93696.97;4991028;28;20233;-73
2023/04/13 11:30:23;;;;;;;5.65;3.13;;;;;;;19.00;33.08;93708.34;4979304;28;20206;-73
2023/04/13 11:32:53;;;;;;;5.10;3.00;;;;;;;18.95;33.37;93708.00;4962559;28;20289;-74
2023/04/13 11:35:22;;;;;;;7.97;3.35;;;;;;;19.13;32.76;93692.94;4980238;28;20197;-74
2023/04/13 11:37:51;;;;;;;8.27;3.45;;;;;;;19.28;32.90;93674.38;4976984;28;20284;-74
2023/04/13 11:40:21;;;;;;;7.95;3.33;;;;;;;19.35;32.69;93709.25;4990144;28;20197;-74